createdAt,value
2022-11-14T00:00:42.994Z,101299.20
2022-11-14T00:01:44.938Z,101301.70
2022-11-14T00:02:46.882Z,101299.93
2022-11-14T00:03:49.741Z,101301.61
2022-11-14T00:04:51.615Z,101298.06
2022-11-14T00:05:53.511Z,101287.72
2022-11-14T00:06:56.026Z,101292.86
2022-11-14T00:07:59.094Z,101284.33
2022-11-14T00:09:01.023Z,101290.44
2022-11-14T00:10:04.006Z,101294.20
2022-11-14T00:11:05.918Z,101292.48
2022-11-14T00:12:09.179Z,101293.26
2022-11-14T00:13:11.169Z,101298.52
2022-11-14T00:14:13.305Z,101293.20
2022-11-14T00:15:20.411Z,101287.25
2022-11-14T00:16:22.553Z,101298.64
2022-11-14T00:17:24.860Z,101294.11
2022-11-14T00:18:27.060Z,101294.97
2022-11-14T00:19:29.484Z,101295.80
2022-11-14T00:20:31.856Z,101293.26
2022-11-14T00:21:33.743Z,101289.00
2022-11-14T00:22:36.067Z,101295.09
2022-11-14T00:23:37.943Z,101291.48
2022-11-14T00:24:39.835Z,101292.37
2022-11-14T00:25:43.803Z,101294.27
2022-11-14T00:26:46.019Z,101288.94
2022-11-14T00:27:47.896Z,101296.72
2022-11-14T00:28:50.177Z,101292.72
2022-11-14T00:29:52.252Z,101295.14
2022-11-14T00:30:54.224Z,101292.48
2022-11-14T00:31:56.078Z,101295.09
2022-11-14T00:32:57.960Z,101293.16
2022-11-14T00:33:59.845Z,101291.42
2022-11-14T00:35:01.707Z,101292.43
2022-11-14T00:36:04.710Z,101296.72
2022-11-14T00:37:07.645Z,101296.66
2022-11-14T00:38:09.559Z,101294.91
2022-11-14T00:39:13.496Z,101296.00
2022-11-14T00:40:19.710Z,101295.14
2022-11-14T00:41:21.819Z,101295.27
2022-11-14T00:42:23.713Z,101299.89
2022-11-14T00:43:25.581Z,101291.83
2022-11-14T00:44:27.444Z,101299.66
2022-11-14T00:45:29.816Z,101303.41
2022-11-14T00:46:31.875Z,101299.00
2022-11-14T00:47:34.233Z,101296.52
2022-11-14T00:48:36.088Z,101294.91
2022-11-14T00:49:38.216Z,101298.26
2022-11-14T00:50:40.791Z,101296.56
2022-11-14T00:51:42.691Z,101295.92
2022-11-14T00:52:44.605Z,101298.47
2022-11-14T00:53:46.477Z,101301.80
2022-11-14T00:54:48.427Z,101298.45
2022-11-14T00:55:50.313Z,101300.06
2022-11-14T00:56:52.411Z,101299.09
2022-11-14T00:57:54.270Z,101297.38
2022-11-14T00:58:56.172Z,101302.72
2022-11-14T00:59:58.075Z,101295.77
2022-11-14T01:01:01.312Z,101295.13
2022-11-14T01:02:03.447Z,101302.98
2022-11-14T01:03:05.970Z,101297.70
2022-11-14T01:04:07.930Z,101299.41
2022-11-14T01:05:10.062Z,101302.91
2022-11-14T01:06:12.543Z,101299.28
2022-11-14T01:07:14.424Z,101300.19
2022-11-14T01:08:19.432Z,101298.61
2022-11-14T01:09:22.641Z,101299.52
2022-11-14T01:10:25.077Z,101299.67
2022-11-14T01:11:27.430Z,101301.37
2022-11-14T01:12:29.313Z,101299.52
2022-11-14T01:13:31.977Z,101305.64
2022-11-14T01:14:33.842Z,101306.58
2022-11-14T01:15:47.436Z,101297.80
2022-11-14T01:16:50.208Z,101297.87
2022-11-14T01:17:52.148Z,101299.73
2022-11-14T01:18:55.237Z,101299.88
2022-11-14T01:19:57.154Z,101293.73
2022-11-14T01:21:08.191Z,101299.83
2022-11-14T01:22:10.106Z,101303.16
2022-11-14T01:23:14.714Z,101304.88
2022-11-14T01:24:18.405Z,101299.73
2022-11-14T01:25:20.324Z,101305.84
2022-11-14T01:26:22.287Z,101297.15
2022-11-14T01:27:25.111Z,101308.72
2022-11-14T01:28:27.254Z,101298.19
2022-11-14T01:29:30.249Z,101303.44
2022-11-14T01:30:32.234Z,101300.81
2022-11-14T01:31:34.413Z,101312.25
2022-11-14T01:32:36.699Z,101308.77
2022-11-14T01:33:39.367Z,101309.80
2022-11-14T01:34:41.261Z,101320.42
2022-11-14T01:35:43.124Z,101314.08
2022-11-14T01:36:45.430Z,101310.09
2022-11-14T01:37:47.382Z,101301.15
2022-11-14T01:38:53.582Z,101306.42
2022-11-14T01:39:55.696Z,101286.37
2022-11-14T01:40:58.329Z,101308.17
2022-11-14T01:42:00.208Z,101308.17
2022-11-14T01:43:12.371Z,101305.56
2022-11-14T01:45:51.431Z,101307.09
2022-11-14T01:46:57.083Z,101307.22
2022-11-14T01:47:59.013Z,101316.91
2022-11-14T01:49:08.546Z,101310.80
2022-11-14T01:50:12.713Z,101317.05
2022-11-14T01:52:42.535Z,101311.66
2022-11-14T01:53:47.240Z,101318.81
2022-11-14T01:54:54.803Z,101310.98
2022-11-14T01:56:00.659Z,101309.22
2022-11-14T01:57:05.702Z,101310.12
2022-11-14T01:58:07.636Z,101307.52
2022-11-14T01:59:13.252Z,101310.19
2022-11-14T02:00:15.815Z,101318.06
2022-11-14T02:01:18.079Z,101302.35
2022-11-14T02:02:22.959Z,101314.64
2022-11-14T02:03:25.468Z,101311.09
2022-11-14T02:04:30.340Z,101315.35
2022-11-14T02:05:33.094Z,101307.61
2022-11-14T02:06:36.206Z,101312.84
2022-11-14T02:07:40.399Z,101314.69
2022-11-14T02:08:44.014Z,101312.92
2022-11-14T02:09:48.245Z,101314.69
2022-11-14T02:10:50.247Z,101316.61
2022-11-14T02:11:55.937Z,101312.14
2022-11-14T02:12:57.838Z,101313.94
2022-11-14T02:14:00.595Z,101313.10
2022-11-14T02:15:03.751Z,101310.47
2022-11-14T02:16:06.611Z,101318.39
2022-11-14T02:18:12.801Z,101317.46
2022-11-14T02:19:15.212Z,101318.35
2022-11-14T02:20:30.436Z,101316.64
2022-11-14T02:21:32.353Z,101316.66
2022-11-14T02:22:34.654Z,101313.19
2022-11-14T02:23:36.642Z,101320.22
2022-11-14T02:24:38.491Z,101322.86
2022-11-14T02:25:40.691Z,101314.97
2022-11-14T02:26:43.386Z,101321.19
2022-11-14T02:27:45.591Z,101309.76
2022-11-14T02:28:49.286Z,101314.16
2022-11-14T02:29:51.361Z,101312.33
2022-11-14T02:30:55.122Z,101316.72
2022-11-14T02:31:59.343Z,101322.92
2022-11-14T02:33:10.936Z,101321.19
2022-11-14T02:34:05.894Z,101319.55
2022-11-14T02:35:08.471Z,101324.09
2022-11-14T02:36:11.201Z,101318.70
2022-11-14T02:37:13.058Z,101322.20
2022-11-14T02:38:14.926Z,101322.94
2022-11-14T02:39:16.785Z,101316.09
2022-11-14T02:40:19.012Z,101313.34
2022-11-14T02:41:21.343Z,101308.97
2022-11-14T02:42:24.709Z,101314.47
2022-11-14T02:43:26.605Z,101314.44
2022-11-14T02:44:28.495Z,101314.40
2022-11-14T02:45:30.370Z,101308.34
2022-11-14T02:46:32.638Z,101309.98
2022-11-14T02:47:34.500Z,101312.52
2022-11-14T02:48:36.471Z,101314.14
2022-11-14T02:49:38.320Z,101307.34
2022-11-14T02:50:40.312Z,101312.61
2022-11-14T02:51:42.216Z,101310.03
2022-11-14T02:52:44.107Z,101313.49
2022-11-14T02:53:46.205Z,101319.62
2022-11-14T02:54:51.708Z,101316.91
2022-11-14T02:55:51.921Z,101316.78
2022-11-14T02:56:54.077Z,101313.45
2022-11-14T02:57:55.938Z,101316.08
2022-11-14T02:58:59.414Z,101308.31
2022-11-14T03:00:01.430Z,101311.77
2022-11-14T03:01:20.374Z,101316.22
2022-11-14T03:02:07.544Z,101317.92
2022-11-14T03:03:09.477Z,101323.20
2022-11-14T03:04:11.425Z,101322.31
2022-11-14T03:05:13.483Z,101315.42
2022-11-14T03:06:15.646Z,101320.63
2022-11-14T03:07:17.557Z,101311.19
2022-11-14T03:08:19.696Z,101315.48
2022-11-14T03:09:21.544Z,101315.52
2022-11-14T03:10:24.185Z,101320.84
2022-11-14T03:11:26.055Z,101308.59
2022-11-14T03:12:27.987Z,101315.66
2022-11-14T03:13:30.063Z,101312.13
2022-11-14T03:14:31.953Z,101317.41
2022-11-14T03:15:38.251Z,101310.45
2022-11-14T03:16:40.303Z,101315.69
2022-11-14T03:17:42.239Z,101314.89
2022-11-14T03:18:44.111Z,101311.55
2022-11-14T03:19:45.964Z,101313.24
2022-11-14T03:20:48.528Z,101317.75
2022-11-14T03:21:50.421Z,101314.31
2022-11-14T03:22:52.309Z,101319.52
2022-11-14T03:23:54.161Z,101323.11
2022-11-14T03:24:56.007Z,101326.45
2022-11-14T03:26:02.012Z,101324.77
2022-11-14T03:27:04.055Z,101278.77
2022-11-14T03:28:06.021Z,101321.26
2022-11-14T03:29:08.229Z,101328.98
2022-11-14T03:30:11.517Z,101324.72
2022-11-14T03:31:14.209Z,101326.45
2022-11-14T03:32:16.128Z,101332.52
2022-11-14T03:33:17.979Z,101331.61
2022-11-14T03:34:19.828Z,101327.24
2022-11-14T03:35:21.781Z,101334.14
2022-11-14T03:36:23.773Z,101324.63
2022-11-14T03:37:25.632Z,101331.73
2022-11-14T03:38:27.937Z,101333.67
2022-11-14T03:39:30.401Z,101332.78
2022-11-14T03:40:32.563Z,101325.70
2022-11-14T03:41:34.421Z,101332.66
2022-11-14T03:42:36.289Z,101329.08
2022-11-14T03:43:38.170Z,101333.44
2022-11-14T03:44:40.027Z,101327.28
2022-11-14T03:45:42.084Z,101328.23
2022-11-14T03:46:44.608Z,101332.55
2022-11-14T03:47:46.484Z,101330.81
2022-11-14T03:48:48.460Z,101334.23
2022-11-14T03:49:50.455Z,101336.97
2022-11-14T03:50:52.431Z,101333.53
2022-11-14T03:51:54.313Z,101332.69
2022-11-14T03:52:56.333Z,101330.16
2022-11-14T03:53:58.379Z,101325.72
2022-11-14T03:55:00.369Z,101329.20
2022-11-14T03:56:03.081Z,101329.17
2022-11-14T03:57:04.971Z,101322.20
2022-11-14T03:58:06.886Z,101330.99
2022-11-14T03:59:09.751Z,101324.86
2022-11-14T04:00:13.882Z,101330.99
2022-11-14T04:01:15.978Z,101327.49
2022-11-14T04:02:18.006Z,101327.55
2022-11-14T04:03:19.892Z,101323.14
2022-11-14T04:04:22.503Z,101326.66
2022-11-14T04:05:24.471Z,101322.25
2022-11-14T04:06:26.824Z,101322.33
2022-11-14T04:07:28.738Z,101325.86
2022-11-14T04:08:32.133Z,101316.20
2022-11-14T04:09:34.419Z,101323.16
2022-11-14T04:10:36.432Z,101317.94
2022-11-14T04:11:38.437Z,101331.91
2022-11-14T04:12:40.305Z,101330.11
2022-11-14T04:13:42.179Z,101326.62
2022-11-14T04:14:45.382Z,101335.33
2022-11-14T04:15:55.629Z,101326.62
2022-11-14T04:16:57.650Z,101324.03
2022-11-14T04:18:00.044Z,101326.66
2022-11-14T04:19:01.966Z,101330.11
2022-11-14T04:20:04.921Z,101334.47
2022-11-14T04:21:07.012Z,101333.59
2022-11-14T04:22:08.906Z,101337.04
2022-11-14T04:23:10.826Z,101340.55
2022-11-14T04:24:12.679Z,101334.47
2022-11-14T04:25:14.589Z,101330.95
2022-11-14T04:26:17.438Z,101337.11
2022-11-14T04:27:19.315Z,101334.55
2022-11-14T04:28:21.209Z,101338.08
2022-11-14T04:29:23.406Z,101337.18
2022-11-14T04:30:25.402Z,101339.78
2022-11-14T04:31:27.271Z,101344.15
2022-11-14T04:32:29.445Z,101338.03
2022-11-14T04:33:31.434Z,101347.54
2022-11-14T04:34:33.321Z,101348.42
2022-11-14T04:35:35.223Z,101344.06
2022-11-14T04:36:37.205Z,101348.37
2022-11-14T04:37:39.081Z,101344.88
2022-11-14T04:38:40.937Z,101349.29
2022-11-14T04:39:42.827Z,101351.00
2022-11-14T04:40:51.209Z,101346.58
2022-11-14T04:41:53.130Z,101343.93
2022-11-14T04:42:55.010Z,101351.00
2022-11-14T04:43:56.901Z,101351.03
2022-11-14T04:44:58.801Z,101350.19
2022-11-14T04:46:00.964Z,101358.09
2022-11-14T04:47:03.163Z,101351.08
2022-11-14T04:48:06.293Z,101355.48
2022-11-14T04:49:08.793Z,101353.59
2022-11-14T04:50:13.211Z,101356.28
2022-11-14T04:51:16.134Z,101356.27
2022-11-14T04:52:21.622Z,101355.39
2022-11-14T04:53:24.926Z,101351.87
2022-11-14T04:54:28.242Z,101363.31
2022-11-14T04:55:30.143Z,101353.66
2022-11-14T04:56:32.382Z,101359.00
2022-11-14T04:57:36.428Z,101359.00
2022-11-14T04:58:45.851Z,101360.69
2022-11-14T04:59:47.783Z,101356.38
2022-11-14T05:00:52.182Z,101357.30
2022-11-14T05:01:54.774Z,101358.98
2022-11-14T05:02:59.875Z,101357.31
2022-11-14T05:04:02.785Z,101365.11
2022-11-14T05:05:06.206Z,101360.78
2022-11-14T05:06:09.825Z,101364.23
2022-11-14T05:07:15.151Z,101369.48
2022-11-14T05:08:17.184Z,101365.09
2022-11-14T05:09:21.466Z,101366.84
2022-11-14T05:10:25.389Z,101371.21
2022-11-14T05:11:29.536Z,101367.70
2022-11-14T05:12:35.283Z,101366.89
2022-11-14T05:13:38.101Z,101371.27
2022-11-14T05:14:40.108Z,101373.02
2022-11-14T05:15:45.897Z,101371.22
2022-11-14T05:16:47.928Z,101380.86
2022-11-14T05:17:49.816Z,101378.27
2022-11-14T05:18:53.898Z,101381.82
2022-11-14T05:19:56.017Z,101381.83
2022-11-14T05:21:02.233Z,101380.95
2022-11-14T05:22:04.669Z,101380.07
2022-11-14T05:23:06.986Z,101380.07
2022-11-14T05:24:08.907Z,101381.88
2022-11-14T05:25:10.757Z,101379.23
2022-11-14T05:26:15.630Z,101380.88
2022-11-14T05:27:17.559Z,101386.13
2022-11-14T05:28:19.416Z,101380.03
2022-11-14T05:29:21.330Z,101380.97
2022-11-14T05:30:23.401Z,101380.95
2022-11-14T05:31:25.274Z,101375.70
2022-11-14T05:32:27.167Z,101386.39
2022-11-14T05:33:30.783Z,101384.55
2022-11-14T05:34:32.685Z,101388.21
2022-11-14T05:35:35.301Z,101389.83
2022-11-14T05:36:39.560Z,101383.68
2022-11-14T05:37:44.900Z,101380.97
2022-11-14T05:38:47.104Z,101382.74
2022-11-14T05:39:49.672Z,101383.61
2022-11-14T05:40:51.645Z,101384.52
2022-11-14T05:41:53.515Z,101391.45
2022-11-14T05:42:56.753Z,101387.99
2022-11-14T05:43:58.796Z,101390.59
2022-11-14T05:45:00.786Z,101382.72
2022-11-14T05:46:06.139Z,101381.85
2022-11-14T05:47:08.080Z,101390.63
2022-11-14T05:48:10.321Z,101390.75
2022-11-14T05:49:12.348Z,101392.51
2022-11-14T05:50:14.703Z,101396.85
2022-11-14T05:51:16.581Z,101396.87
2022-11-14T05:52:18.563Z,101402.08
2022-11-14T05:53:20.441Z,101401.13
2022-11-14T05:54:22.363Z,101402.89
2022-11-14T05:55:25.293Z,101396.70
2022-11-14T05:56:27.478Z,101391.45
2022-11-14T05:57:30.076Z,101391.52
2022-11-14T05:58:34.135Z,101399.33
2022-11-14T05:59:36.039Z,101393.23
2022-11-14T06:00:44.272Z,101390.63
2022-11-14T06:01:42.002Z,101395.03
2022-11-14T06:02:44.631Z,101396.76
2022-11-14T06:03:47.751Z,101405.47
2022-11-14T06:04:49.634Z,101396.67
2022-11-14T06:05:51.493Z,101401.84
2022-11-14T06:06:53.542Z,101401.80
2022-11-14T06:07:57.524Z,101400.92
2022-11-14T06:08:59.444Z,101408.73
2022-11-14T06:10:05.971Z,101406.11
2022-11-14T06:11:10.972Z,101413.94
2022-11-14T06:12:12.883Z,101413.94
2022-11-14T06:13:14.737Z,101408.64
2022-11-14T06:14:16.685Z,101410.37
2022-11-14T06:15:18.668Z,101405.91
2022-11-14T06:16:22.021Z,101413.77
2022-11-14T06:17:24.529Z,101411.10
2022-11-14T06:18:27.545Z,101418.84
2022-11-14T06:19:29.686Z,101418.84
2022-11-14T06:20:31.873Z,101413.63
2022-11-14T06:21:33.907Z,101411.88
2022-11-14T06:22:35.780Z,101418.67
2022-11-14T06:23:42.989Z,101411.49
2022-11-14T06:24:46.305Z,101406.21
2022-11-14T06:25:48.718Z,101411.38
2022-11-14T06:26:50.924Z,101411.19
2022-11-14T06:27:52.806Z,101404.84
2022-11-14T06:28:54.907Z,101410.93
2022-11-14T06:29:57.375Z,101410.04
2022-11-14T06:31:02.513Z,101407.45
2022-11-14T06:32:05.510Z,101413.42
2022-11-14T06:33:07.585Z,101413.41
2022-11-14T06:34:11.010Z,101403.30
2022-11-14T06:35:13.314Z,101410.95
2022-11-14T06:36:15.816Z,101414.53
2022-11-14T06:37:17.711Z,101419.72
2022-11-14T06:38:20.684Z,101410.24
2022-11-14T06:39:22.580Z,101414.23
2022-11-14T06:40:24.570Z,101408.79
2022-11-14T06:41:26.456Z,101408.53
2022-11-14T06:42:28.331Z,101414.67
2022-11-14T06:43:32.935Z,101418.48
2022-11-14T06:44:34.885Z,101416.46
2022-11-14T06:45:36.752Z,101407.72
2022-11-14T06:46:39.585Z,101350.81
2022-11-14T06:47:41.521Z,101414.94
2022-11-14T06:48:45.474Z,101410.64
2022-11-14T06:49:47.404Z,101413.37
2022-11-14T06:50:55.454Z,101407.16
2022-11-14T06:51:57.346Z,101410.56
2022-11-14T06:52:59.301Z,101415.06
2022-11-14T06:54:01.201Z,101414.13
2022-11-14T06:55:03.656Z,101417.83
2022-11-14T06:56:10.129Z,101410.70
2022-11-14T06:57:13.369Z,101421.13
2022-11-14T06:58:16.384Z,101420.58
2022-11-14T06:59:18.887Z,101414.51
2022-11-14T07:00:21.604Z,101421.21
2022-11-14T07:01:25.042Z,101417.74
2022-11-14T07:02:27.105Z,101424.90
2022-11-14T07:03:29.007Z,101423.91
2022-11-14T07:04:30.967Z,101417.69
2022-11-14T07:05:32.863Z,101430.20
2022-11-14T07:06:34.839Z,101431.53
2022-11-14T07:07:36.899Z,101431.55
2022-11-14T07:08:38.819Z,101427.85
2022-11-14T07:09:40.681Z,101434.73
2022-11-14T07:10:43.796Z,101432.08
2022-11-14T07:11:46.178Z,101432.84
2022-11-14T07:12:48.076Z,101420.61
2022-11-14T07:13:51.496Z,101425.61
2022-11-14T07:14:53.798Z,101429.22
2022-11-14T07:15:59.384Z,101422.20
2022-11-14T07:17:03.247Z,101431.09
2022-11-14T07:18:05.181Z,101427.09
2022-11-14T07:19:07.783Z,101423.58
2022-11-14T07:20:11.050Z,101422.47
2022-11-14T07:21:12.936Z,101421.88
2022-11-14T07:22:14.944Z,101422.61
2022-11-14T07:23:22.554Z,101426.70
2022-11-14T07:24:20.736Z,101427.04
2022-11-14T07:25:22.623Z,101423.02
2022-11-14T07:26:24.576Z,101422.27
2022-11-14T07:27:27.475Z,101425.30
2022-11-14T07:28:30.280Z,101423.67
2022-11-14T07:29:32.581Z,101428.66
2022-11-14T07:30:34.660Z,101429.31
2022-11-14T07:31:36.626Z,101417.70
2022-11-14T07:32:38.491Z,101427.70
2022-11-14T07:33:41.330Z,101428.84
2022-11-14T07:34:43.201Z,101434.20
2022-11-14T07:35:45.499Z,101431.95
2022-11-14T07:36:47.493Z,101431.06
2022-11-14T07:37:50.250Z,101440.29
2022-11-14T07:38:52.760Z,101431.70
2022-11-14T07:39:54.617Z,101433.26
2022-11-14T07:41:00.247Z,101432.38
2022-11-14T07:42:02.351Z,101440.45
2022-11-14T07:43:04.406Z,101440.50
2022-11-14T07:44:06.567Z,101439.45
2022-11-14T07:45:10.187Z,101442.63
2022-11-14T07:46:15.103Z,101438.56
2022-11-14T07:47:17.002Z,101439.81
2022-11-14T07:48:19.313Z,101435.79
2022-11-14T07:49:21.285Z,101437.05
2022-11-14T07:50:26.305Z,101430.30
2022-11-14T07:51:28.206Z,101432.84
2022-11-14T07:52:30.070Z,101437.36
2022-11-14T07:53:32.839Z,101434.88
2022-11-14T07:54:35.827Z,101425.05
2022-11-14T07:55:39.162Z,101425.09
2022-11-14T07:56:42.316Z,101420.74
2022-11-14T07:57:49.168Z,101426.70
2022-11-14T07:58:50.432Z,101414.20
2022-11-14T07:59:52.295Z,101417.58
2022-11-14T08:00:54.436Z,101408.29
2022-11-14T08:01:56.449Z,101421.69
2022-11-14T08:02:58.325Z,101415.23
2022-11-14T08:04:00.220Z,101410.27
2022-11-14T08:05:02.531Z,101415.55
2022-11-14T08:06:09.682Z,101413.97
2022-11-14T08:07:11.857Z,101411.78
2022-11-14T08:08:15.077Z,101410.06
2022-11-14T08:09:17.271Z,101405.53
2022-11-14T08:10:20.339Z,101409.89
2022-11-14T08:11:34.556Z,101412.07
2022-11-14T08:12:26.048Z,101407.52
2022-11-14T08:13:32.579Z,101402.97
2022-11-14T08:14:34.383Z,101405.09
2022-11-14T08:15:36.395Z,101407.49
2022-11-14T08:16:38.872Z,101402.94
2022-11-14T08:17:40.967Z,101402.87
2022-11-14T08:18:42.833Z,101399.14
2022-11-14T08:19:44.705Z,101398.04
2022-11-14T08:20:48.674Z,101400.80
2022-11-14T08:21:50.667Z,101399.20
2022-11-14T08:22:56.278Z,101398.56
2022-11-14T08:23:59.216Z,101395.28
2022-11-14T08:25:01.906Z,101400.16
2022-11-14T08:26:04.174Z,101397.45
2022-11-14T08:27:06.027Z,101393.30
2022-11-14T08:28:08.282Z,101395.45
2022-11-14T08:29:10.701Z,101390.72
2022-11-14T08:30:13.717Z,101398.14
2022-11-14T08:31:15.600Z,101392.87
2022-11-14T08:32:18.531Z,101395.06
2022-11-14T08:33:20.572Z,101393.94
2022-11-14T08:34:22.429Z,101389.24
2022-11-14T08:35:24.523Z,101390.24
2022-11-14T08:36:26.509Z,101387.01
2022-11-14T08:37:28.879Z,101396.56
2022-11-14T08:38:32.418Z,101389.98
2022-11-14T08:39:35.564Z,101384.27
2022-11-14T08:40:38.088Z,101380.07
2022-11-14T08:41:39.958Z,101386.16
2022-11-14T08:42:41.960Z,101384.29
2022-11-14T08:43:44.354Z,101393.41
2022-11-14T08:44:51.719Z,101392.31
2022-11-14T08:45:51.669Z,101390.10
2022-11-14T08:46:53.775Z,101386.32
2022-11-14T08:47:56.889Z,101380.07
2022-11-14T08:48:59.104Z,101380.31
2022-11-14T08:50:01.181Z,101379.66
2022-11-14T08:51:06.767Z,101375.72
2022-11-14T08:52:15.318Z,101382.47
2022-11-14T08:53:14.351Z,101372.65
2022-11-14T08:54:16.833Z,101376.03
2022-11-14T08:55:20.869Z,101376.17
2022-11-14T08:56:23.221Z,101382.16
2022-11-14T08:57:25.099Z,101376.69
2022-11-14T08:58:29.272Z,101375.88
2022-11-14T08:59:32.671Z,101381.55
2022-11-14T09:00:35.958Z,101376.73
2022-11-14T09:01:38.578Z,101380.03
2022-11-14T09:02:40.498Z,101378.39
2022-11-14T09:03:42.464Z,101377.33
2022-11-14T09:04:44.909Z,101376.94
2022-11-14T09:05:52.439Z,101377.00
2022-11-14T09:06:54.989Z,101370.52
2022-11-14T09:07:59.895Z,101373.97
2022-11-14T09:09:02.063Z,101372.20
2022-11-14T09:10:05.840Z,101373.54
2022-11-14T09:11:10.076Z,101363.64
2022-11-14T09:12:11.876Z,101362.82
2022-11-14T09:13:13.788Z,101369.22
2022-11-14T09:14:15.950Z,101358.41
2022-11-14T09:15:18.026Z,101360.19
2022-11-14T09:16:20.003Z,101364.60
2022-11-14T09:17:21.887Z,101357.17
2022-11-14T09:18:24.772Z,101361.66
2022-11-14T09:19:26.664Z,101356.19
2022-11-14T09:20:34.048Z,101353.52
2022-11-14T09:21:33.497Z,101358.03
2022-11-14T09:22:35.474Z,101363.27
2022-11-14T09:23:37.396Z,101347.25
2022-11-14T09:24:40.610Z,101354.16
2022-11-14T09:25:42.932Z,101346.05
2022-11-14T09:26:45.961Z,101344.65
2022-11-14T09:27:48.001Z,101360.77
2022-11-14T09:28:50.095Z,101343.48
2022-11-14T09:29:52.093Z,101350.36
2022-11-14T09:30:59.895Z,101346.61
2022-11-14T09:32:01.948Z,101354.30
2022-11-14T09:33:11.110Z,101354.30
2022-11-14T09:34:09.830Z,101344.57
2022-11-14T09:35:11.785Z,101344.57
2022-11-14T09:36:14.241Z,101347.17
2022-11-14T09:37:16.152Z,101347.17
2022-11-14T09:38:18.432Z,101349.40
2022-11-14T09:39:20.404Z,101345.75
2022-11-14T09:40:22.571Z,101344.75
2022-11-14T09:41:37.899Z,101340.44
2022-11-14T09:43:02.963Z,101346.45
2022-11-14T09:44:23.914Z,101333.58
2022-11-14T09:45:27.655Z,101333.58
2022-11-14T09:46:39.025Z,101351.22
2022-11-14T09:47:44.685Z,101343.57
2022-11-14T09:48:47.628Z,101340.12
2022-11-14T09:49:53.268Z,101340.12
2022-11-14T09:51:08.275Z,101338.22
2022-11-14T09:52:30.843Z,101335.34
2022-11-14T09:53:39.387Z,101335.34
2022-11-14T09:54:48.230Z,101343.42
2022-11-14T09:55:51.361Z,101337.22
2022-11-14T09:56:54.952Z,101337.22
2022-11-14T09:57:57.744Z,101344.12
2022-11-14T09:59:00.752Z,101342.05
2022-11-14T10:00:17.985Z,101331.78
2022-11-14T10:01:45.139Z,101331.59
2022-11-14T10:03:11.065Z,101337.80
2022-11-14T10:04:37.099Z,101335.16
2022-11-14T10:05:56.026Z,101332.88
2022-11-14T10:07:07.697Z,101322.32
2022-11-14T10:08:17.841Z,101335.95
2022-11-14T10:11:10.264Z,101336.70
2022-11-14T10:12:23.226Z,101334.28
2022-11-14T10:13:32.618Z,101331.42
2022-11-14T10:14:48.001Z,101307.69
2022-11-14T10:15:59.572Z,101331.94
2022-11-14T10:17:34.296Z,101334.28
2022-11-14T10:18:45.521Z,101329.68
2022-11-14T10:19:51.216Z,101329.30
2022-11-14T10:20:56.397Z,101336.88
2022-11-14T10:22:19.038Z,101336.63
2022-11-14T10:23:46.274Z,101337.66
2022-11-14T10:25:12.355Z,101330.04
2022-11-14T10:26:28.831Z,101330.04
2022-11-14T10:27:34.822Z,101329.49
2022-11-14T10:28:55.472Z,101329.49
2022-11-14T10:30:13.305Z,101322.09
2022-11-14T10:31:28.614Z,101333.30
2022-11-14T10:32:34.297Z,101324.61
2022-11-14T10:34:15.253Z,101322.87
2022-11-14T10:37:00.204Z,101313.54
2022-11-14T10:39:43.248Z,101317.52
2022-11-14T10:40:49.102Z,101319.22
2022-11-14T10:41:58.795Z,101312.12
2022-11-14T10:43:06.260Z,101304.20
2022-11-14T10:44:12.044Z,101310.20
2022-11-14T10:45:36.409Z,101312.50
2022-11-14T10:46:51.364Z,101314.25
2022-11-14T10:49:19.978Z,101308.91
2022-11-14T10:50:46.955Z,101301.84
2022-11-14T10:51:55.238Z,101311.13
2022-11-14T10:53:00.849Z,101317.35
2022-11-14T10:54:15.106Z,101309.44
2022-11-14T10:55:32.027Z,101309.17
2022-11-14T10:56:26.212Z,101309.44
2022-11-14T10:57:29.153Z,101301.20
2022-11-14T10:58:46.802Z,101302.38
2022-11-14T10:59:36.047Z,101298.44
2022-11-14T11:00:38.121Z,101299.38
2022-11-14T11:01:56.078Z,101296.52
2022-11-14T11:02:58.108Z,101299.77
2022-11-14T11:04:29.238Z,101296.95
2022-11-14T11:05:31.620Z,101296.95
2022-11-14T11:06:33.714Z,101288.91
2022-11-14T11:07:40.433Z,101298.02
2022-11-14T11:08:44.432Z,101290.78
2022-11-14T11:09:51.145Z,101292.48
2022-11-14T11:10:57.646Z,101295.98
2022-11-14T11:12:01.962Z,101293.30
2022-11-14T11:13:05.040Z,101295.77
2022-11-14T11:14:16.855Z,101294.66
2022-11-14T11:15:26.810Z,101294.66
2022-11-14T11:16:30.062Z,101290.57
2022-11-14T11:17:37.337Z,101298.70
2022-11-14T11:18:37.108Z,101290.57
2022-11-14T11:19:39.314Z,101293.38
2022-11-14T11:20:42.298Z,101290.61
2022-11-14T11:21:50.184Z,101288.02
2022-11-14T11:23:10.654Z,101288.10
2022-11-14T11:24:16.499Z,101288.19
2022-11-14T11:25:24.649Z,101292.70
2022-11-14T11:26:29.820Z,101302.48
2022-11-14T11:27:32.220Z,101299.28
2022-11-14T11:28:36.350Z,101301.00
2022-11-14T11:29:38.331Z,101287.03
2022-11-14T11:30:55.437Z,101290.72
2022-11-14T11:31:59.074Z,101297.71
2022-11-14T11:33:21.052Z,101292.44
2022-11-14T11:34:32.183Z,101297.79
2022-11-14T11:35:35.911Z,101299.49
2022-11-14T11:36:44.625Z,101299.38
2022-11-14T11:37:56.116Z,101297.63
2022-11-14T11:39:00.187Z,101294.22
2022-11-14T11:40:06.217Z,101294.91
2022-11-14T11:43:31.684Z,101291.00
2022-11-14T11:43:57.239Z,101297.67
2022-11-14T11:45:03.529Z,101298.36
2022-11-14T11:46:15.971Z,101300.91
2022-11-14T11:47:19.255Z,101298.23
2022-11-14T11:48:24.540Z,101294.83
2022-11-14T11:49:36.955Z,101299.03
2022-11-14T11:50:40.721Z,101294.53
2022-11-14T11:51:45.267Z,101295.55
2022-11-14T11:53:07.813Z,101292.66
2022-11-14T11:54:19.366Z,101296.23
2022-11-14T11:55:31.329Z,101287.42
2022-11-14T11:56:35.359Z,101285.08
2022-11-14T11:57:44.208Z,101285.16
2022-11-14T11:58:52.142Z,101287.55
2022-11-14T12:00:07.423Z,101286.91
2022-11-14T12:01:11.506Z,101276.17
2022-11-14T12:02:27.838Z,101274.52
2022-11-14T12:03:30.113Z,101284.31
2022-11-14T12:04:32.152Z,101284.47
2022-11-14T12:05:43.837Z,101280.81
2022-11-14T12:06:55.823Z,101283.58
2022-11-14T12:08:05.274Z,101286.13
2022-11-14T12:09:19.781Z,101282.44
2022-11-14T12:10:29.128Z,101277.92
2022-11-14T12:11:37.549Z,101287.55
2022-11-14T12:12:46.977Z,101282.19
2022-11-14T12:13:57.972Z,101271.80
2022-11-14T12:15:16.359Z,101280.56
2022-11-14T12:16:30.843Z,101275.62
2022-11-14T12:18:55.658Z,101282.35
2022-11-14T12:20:07.519Z,101286.98
2022-11-14T12:21:19.245Z,101285.12
2022-11-14T12:22:30.398Z,101277.16
2022-11-14T12:23:54.592Z,101282.40
2022-11-14T12:25:03.498Z,101280.69
2022-11-14T12:26:21.565Z,101278.73
2022-11-14T12:27:36.114Z,101278.73